createdAt,value
2023-05-12T00:01:34.736Z,14.52
2023-05-12T00:06:38.555Z,14.46
2023-05-12T00:11:41.270Z,14.38
2023-05-12T00:16:43.836Z,14.30
2023-05-12T00:21:48.183Z,14.19
2023-05-12T00:26:50.680Z,14.11
2023-05-12T00:31:53.252Z,14.04
2023-05-12T00:36:57.170Z,13.91
2023-05-12T00:42:00.404Z,13.80
2023-05-12T00:47:04.690Z,13.67
2023-05-12T00:52:08.748Z,13.58
2023-05-12T00:57:11.776Z,13.51
2023-05-12T01:02:14.496Z,13.44
2023-05-12T01:07:20.304Z,13.36
2023-05-12T01:12:22.862Z,13.31
2023-05-12T01:17:32.507Z,13.25
2023-05-12T01:22:38.383Z,13.13
2023-05-12T01:27:43.507Z,13.07
2023-05-12T01:32:46.191Z,13.02
2023-05-12T01:37:48.724Z,12.95
2023-05-12T01:42:52.589Z,12.93
2023-05-12T01:47:55.120Z,12.85
2023-05-12T01:52:57.628Z,12.75
2023-05-12T01:58:01.481Z,12.73
2023-05-12T02:03:04.239Z,12.62
2023-05-12T02:08:07.248Z,12.51
2023-05-12T02:13:11.088Z,12.43
2023-05-12T02:18:13.607Z,12.33
2023-05-12T02:23:16.094Z,12.34
2023-05-12T02:28:19.901Z,12.36
2023-05-12T02:33:22.926Z,12.32
2023-05-12T02:38:25.676Z,12.26
2023-05-12T02:43:29.528Z,12.10
2023-05-12T02:48:32.065Z,11.90
2023-05-12T02:53:34.668Z,11.82
2023-05-12T02:58:38.514Z,11.79
2023-05-12T03:03:41.350Z,11.81
2023-05-12T03:08:43.944Z,11.80
2023-05-12T03:13:47.904Z,11.75
2023-05-12T03:18:50.483Z,11.68
2023-05-12T03:23:53.029Z,11.62
2023-05-12T03:28:56.840Z,11.55
2023-05-12T03:33:59.314Z,11.53
2023-05-12T03:39:03.014Z,11.48
2023-05-12T03:44:08.441Z,11.43
2023-05-12T03:49:11.369Z,11.43
2023-05-12T03:54:13.868Z,11.35
2023-05-12T03:59:17.717Z,11.36
2023-05-12T04:04:20.221Z,11.42
2023-05-12T04:09:22.707Z,11.46
2023-05-12T04:14:35.228Z,11.50
2023-05-12T04:19:41.940Z,11.56
2023-05-12T04:24:44.440Z,11.64
2023-05-12T04:29:48.278Z,11.78
2023-05-12T04:34:51.600Z,11.84
2023-05-12T04:39:54.369Z,11.91
2023-05-12T04:44:58.186Z,12.01
2023-05-12T04:50:01.117Z,12.07
2023-05-12T04:55:03.929Z,12.20
2023-05-12T05:00:09.286Z,12.33
2023-05-12T05:05:11.884Z,12.46
2023-05-12T05:10:14.458Z,12.63
2023-05-12T05:15:18.742Z,12.80
2023-05-12T05:20:27.652Z,12.96
2023-05-12T05:25:31.357Z,13.19
2023-05-12T05:30:35.300Z,13.45
2023-05-12T05:35:37.809Z,13.71
2023-05-12T05:40:52.174Z,13.86
2023-05-12T05:45:58.116Z,14.05
2023-05-12T05:51:00.620Z,14.25
2023-05-12T05:56:03.114Z,14.50
2023-05-12T06:01:07.262Z,14.71
2023-05-12T06:06:09.784Z,14.97
2023-05-12T06:11:12.282Z,15.20
2023-05-12T06:16:17.328Z,15.40
2023-05-12T06:21:19.840Z,15.61
2023-05-12T06:26:22.372Z,15.83
2023-05-12T06:31:26.341Z,16.04
2023-05-12T06:36:28.885Z,16.20
2023-05-12T06:41:33.497Z,16.35
2023-05-12T06:46:37.368Z,16.55
2023-05-12T06:51:39.885Z,16.78
2023-05-12T06:56:42.516Z,17.00
2023-05-12T07:01:46.400Z,17.13
2023-05-12T07:06:48.927Z,17.32
2023-05-12T07:11:51.471Z,17.62
2023-05-12T07:16:55.294Z,17.89
2023-05-12T07:21:58.632Z,17.98
2023-05-12T07:27:01.154Z,18.10
2023-05-12T07:32:06.106Z,18.50
2023-05-12T07:37:08.668Z,18.63
2023-05-12T07:42:11.329Z,18.65
2023-05-12T07:47:15.381Z,18.82
2023-05-12T07:52:18.004Z,19.06
2023-05-12T07:57:20.515Z,19.30
2023-05-12T08:02:24.442Z,19.54
2023-05-12T08:07:27.025Z,19.69
2023-05-12T08:12:29.664Z,19.78
2023-05-12T08:17:33.510Z,19.92
2023-05-12T08:22:36.025Z,20.17
2023-05-12T08:27:38.544Z,20.30
2023-05-12T08:32:42.529Z,20.42
2023-05-12T08:37:45.070Z,20.69
2023-05-12T08:42:55.838Z,20.86
2023-05-12T08:48:01.547Z,21.14
2023-05-12T08:53:05.419Z,21.15
2023-05-12T08:58:09.716Z,21.31
2023-05-12T09:03:14.602Z,21.27
2023-05-12T09:08:17.318Z,21.12
2023-05-12T09:13:24.463Z,21.23
2023-05-12T09:18:42.333Z,21.34
2023-05-12T09:23:53.824Z,21.61
2023-05-12T09:29:06.380Z,21.87
2023-05-12T09:34:11.136Z,22.14
2023-05-12T09:39:13.754Z,22.22
2023-05-12T09:44:17.746Z,22.28
2023-05-12T09:49:22.064Z,22.38
2023-05-12T09:54:28.259Z,22.51
2023-05-12T09:59:32.776Z,22.83
2023-05-12T10:04:45.478Z,22.96
2023-05-12T10:09:48.942Z,23.02
2023-05-12T10:14:52.630Z,23.15
2023-05-12T10:19:57.488Z,23.44
2023-05-12T10:25:01.545Z,23.50
2023-05-12T10:30:06.633Z,23.56
2023-05-12T10:35:12.538Z,23.55
2023-05-12T10:40:24.461Z,23.63
2023-05-12T10:45:27.277Z,23.70
2023-05-12T10:50:32.172Z,23.70
2023-05-12T10:55:37.220Z,23.67
2023-05-12T11:00:48.800Z,23.60
2023-05-12T11:06:01.510Z,23.77
2023-05-12T11:11:04.199Z,23.87
2023-05-12T11:16:07.206Z,24.18
2023-05-12T11:21:14.426Z,24.25
2023-05-12T11:26:20.119Z,24.41
2023-05-12T11:31:23.575Z,24.62
2023-05-12T11:36:27.480Z,25.24
2023-05-12T11:41:30.041Z,25.35
2023-05-12T11:46:32.588Z,25.51
2023-05-12T11:51:36.526Z,25.24
2023-05-12T11:56:39.131Z,25.06
2023-05-12T12:01:46.237Z,25.59
2023-05-12T12:06:50.136Z,25.30
2023-05-12T12:11:54.945Z,25.07
2023-05-12T12:16:57.455Z,25.27
2023-05-12T12:22:01.308Z,25.57
2023-05-12T12:27:04.546Z,25.56
2023-05-12T12:32:08.297Z,25.22
2023-05-12T12:37:12.456Z,25.01
2023-05-12T12:42:15.460Z,25.50
2023-05-12T12:47:18.225Z,25.96
2023-05-12T12:52:22.480Z,25.57
2023-05-12T12:57:25.952Z,25.28
2023-05-12T13:02:28.901Z,25.13
2023-05-12T13:07:32.880Z,25.18
2023-05-12T13:12:35.643Z,25.18
2023-05-12T13:17:38.322Z,25.13
2023-05-12T13:22:42.653Z,24.98
2023-05-12T13:27:45.205Z,25.38
2023-05-12T13:32:48.192Z,25.61
2023-05-12T13:37:52.102Z,25.71
2023-05-12T13:42:54.737Z,25.36
2023-05-12T13:47:57.449Z,25.27
2023-05-12T13:53:01.357Z,25.64
2023-05-12T13:58:03.842Z,25.44
2023-05-12T14:03:06.417Z,25.56
2023-05-12T14:08:10.265Z,25.75
2023-05-12T14:13:13.660Z,25.45
2023-05-12T14:18:16.343Z,25.26
2023-05-12T14:23:20.174Z,25.31
2023-05-12T14:28:23.487Z,25.50
2023-05-12T14:33:26.302Z,25.80
2023-05-12T14:38:30.137Z,26.24
2023-05-12T14:43:32.652Z,26.23
2023-05-12T14:48:35.696Z,25.95
2023-05-12T14:53:39.704Z,25.95
2023-05-12T14:58:42.208Z,25.91
2023-05-12T15:03:46.553Z,25.77
2023-05-12T15:08:50.524Z,25.50
2023-05-12T15:13:53.037Z,25.24
2023-05-12T15:18:55.579Z,25.10
2023-05-12T15:23:59.432Z,24.72
2023-05-12T15:29:01.976Z,24.42
2023-05-12T15:34:04.537Z,24.39
2023-05-12T15:39:08.955Z,24.26
2023-05-12T15:44:11.444Z,24.08
2023-05-12T15:49:14.258Z,23.94
2023-05-12T15:54:18.491Z,23.83
2023-05-12T15:59:21.036Z,23.59
2023-05-12T16:04:24.374Z,23.41
2023-05-12T16:09:28.207Z,23.32
2023-05-12T16:14:30.920Z,23.13
2023-05-12T16:19:33.456Z,23.10
2023-05-12T16:24:37.369Z,22.98
2023-05-12T16:29:39.899Z,22.70
2023-05-12T16:34:42.952Z,22.56
2023-05-12T16:39:46.850Z,22.45
2023-05-12T16:44:49.387Z,22.19
2023-05-12T16:49:53.219Z,22.09
2023-05-12T16:54:57.817Z,21.99
2023-05-12T17:00:02.160Z,21.80
2023-05-12T17:05:05.335Z,21.79
2023-05-12T17:10:09.972Z,21.62
2023-05-12T17:15:12.789Z,21.48
2023-05-12T17:20:15.316Z,21.30
2023-05-12T17:25:19.898Z,21.12
2023-05-12T17:30:22.782Z,21.02
2023-05-12T17:35:25.600Z,20.87
2023-05-12T17:40:29.444Z,20.70
2023-05-12T17:45:32.492Z,20.46
2023-05-12T17:50:35.035Z,20.25
2023-05-12T17:55:39.009Z,20.04
2023-05-12T18:00:41.649Z,19.83
2023-05-12T18:05:44.256Z,19.65
2023-05-12T18:10:48.293Z,19.50
2023-05-12T18:15:51.005Z,19.32
2023-05-12T18:20:53.495Z,19.07
2023-05-12T18:25:57.394Z,18.85
2023-05-12T18:31:02.988Z,18.66
2023-05-12T18:36:15.307Z,18.41
2023-05-12T18:41:19.123Z,18.20
2023-05-12T18:46:21.702Z,17.99
2023-05-12T18:51:24.249Z,17.84
2023-05-12T18:56:28.125Z,17.66
2023-05-12T19:01:30.770Z,17.51
2023-05-12T19:06:33.349Z,17.30
2023-05-12T19:11:37.384Z,17.02
2023-05-12T19:16:42.272Z,16.78
2023-05-12T19:21:45.489Z,16.57
2023-05-12T19:26:49.428Z,16.41
2023-05-12T19:31:52.896Z,16.23
2023-05-12T19:36:56.051Z,16.20
2023-05-12T19:41:59.953Z,16.12
2023-05-12T19:47:04.797Z,16.05
2023-05-12T19:52:08.107Z,15.97
2023-05-12T19:57:12.204Z,15.71
2023-05-12T20:02:16.963Z,15.50
2023-05-12T20:07:19.609Z,15.45
2023-05-12T20:12:23.585Z,15.47
2023-05-12T20:17:26.300Z,15.44
2023-05-12T20:22:29.098Z,15.25
2023-05-12T20:27:33.153Z,15.07
2023-05-12T20:32:35.775Z,14.85
2023-05-12T20:37:40.534Z,14.67
2023-05-12T20:42:46.410Z,14.52
2023-05-12T20:47:49.307Z,14.43
2023-05-12T20:52:52.015Z,14.37
2023-05-12T20:57:55.937Z,14.31
2023-05-12T21:02:59.566Z,14.31
2023-05-12T21:08:02.158Z,14.27
2023-05-12T21:13:06.116Z,14.27
2023-05-12T21:18:08.982Z,14.23
2023-05-12T21:23:13.122Z,14.18
2023-05-12T21:28:17.582Z,14.10
2023-05-12T21:33:20.220Z,14.01
2023-05-12T21:38:22.758Z,13.87
2023-05-12T21:43:26.727Z,13.82
2023-05-12T21:48:29.287Z,13.79
2023-05-12T21:53:31.812Z,13.67
2023-05-12T21:58:36.923Z,13.55
2023-05-12T22:03:39.724Z,13.31
2023-05-12T22:08:42.312Z,13.20
2023-05-12T22:13:46.134Z,13.21
2023-05-12T22:18:48.705Z,13.04
2023-05-12T22:23:51.227Z,12.79
2023-05-12T22:28:55.074Z,12.63
2023-05-12T22:33:57.574Z,12.62
2023-05-12T22:39:00.058Z,12.64
2023-05-12T22:44:03.935Z,12.67
2023-05-12T22:49:06.428Z,12.60
2023-05-12T22:54:09.068Z,12.53
2023-05-12T22:59:12.936Z,12.34
2023-05-12T23:04:15.696Z,12.10
2023-05-12T23:09:18.221Z,11.89
2023-05-12T23:14:22.044Z,11.74
2023-05-12T23:19:24.574Z,11.69
2023-05-12T23:24:27.078Z,11.61
2023-05-12T23:29:30.977Z,11.56
2023-05-12T23:34:33.467Z,11.54
2023-05-12T23:39:36.014Z,11.48
2023-05-12T23:44:39.881Z,11.42
2023-05-12T23:49:42.484Z,11.39
2023-05-12T23:54:44.964Z,11.32
2023-05-12T23:59:48.829Z,11.26
